Time;durP1;ratioP1;P1;durP2;ratioP2;P2;SDS_P1;SDS_P2;PMS_P1;PMS_P2;Temp;Humidity;BMP_temperature;BMP_pressure;BME280_temperature;BME280_humidity;BME280_pressure;Samples;Min_cycle;Max_cycle;Signal;HPM_P1;HPM_P2
2024/01/14 00:00:55;;;;;;;619.60;574.83;;;4.50;99.90;;;;;;4979470;28;20054;-78
2024/01/14 00:03:23;;;;;;;670.97;620.58;;;4.50;99.90;;;;;;4991896;28;20053;-78
2024/01/14 00:05:49;;;;;;;561.60;520.35;;;4.50;99.90;;;;;;4995849;28;20045;-77
2024/01/14 00:08:14;;;;;;;730.20;672.10;;;4.50;99.90;;;;;;5036916;28;20046;-77
2024/01/14 00:10:40;;;;;;;640.25;592.35;;;4.50;99.90;;;;;;5005708;28;20038;-77
2024/01/14 00:13:06;;;;;;;640.30;592.97;;;4.50;99.90;;;;;;5002697;28;20060;-78
2024/01/14 00:15:31;;;;;;;704.55;650.22;;;4.70;99.90;;;;;;5002013;28;20050;-78
2024/01/14 00:17:57;;;;;;;623.17;577.65;;;4.50;99.90;;;;;;4994238;28;20474;-77
2024/01/14 00:20:24;;;;;;;655.58;607.20;;;4.40;99.90;;;;;;5006885;28;20558;-77
2024/01/14 00:22:50;;;;;;;714.05;659.75;;;4.40;99.90;;;;;;4990479;28;20108;-77
2024/01/14 00:25:18;;;;;;;738.90;680.80;;;4.50;99.90;;;;;;4999996;28;20449;-78
2024/01/14 00:27:44;;;;;;;691.33;637.78;;;4.30;99.90;;;;;;5004186;28;20485;-78
2024/01/14 00:30:10;;;;;;;839.28;767.75;;;4.30;99.90;;;;;;5005918;28;20048;-78
2024/01/14 00:32:36;;;;;;;747.88;688.60;;;4.30;99.90;;;;;;5001644;28;20074;-78
2024/01/14 00:35:02;;;;;;;894.88;810.00;;;4.30;99.90;;;;;;5005175;28;20126;-78
2024/01/14 00:37:27;;;;;;;900.80;815.10;;;4.30;99.90;;;;;;4997763;28;20978;-78
2024/01/14 00:39:53;;;;;;;787.85;724.83;;;4.30;99.90;;;;;;5005491;28;20050;-78
2024/01/14 00:42:19;;;;;;;769.90;710.30;;;4.30;99.90;;;;;;5003615;28;20046;-78
2024/01/14 00:44:44;;;;;;;966.35;871.05;;;4.30;99.90;;;;;;4985992;28;20103;-78
2024/01/14 00:47:10;;;;;;;716.50;660.65;;;4.40;99.90;;;;;;4985093;28;20082;-78
2024/01/14 00:49:36;;;;;;;707.50;655.33;;;4.40;99.90;;;;;;4965704;28;20051;-78
2024/01/14 00:52:02;;;;;;;764.08;704.67;;;4.40;99.90;;;;;;4982281;28;20496;-78
2024/01/14 00:54:28;;;;;;;692.70;640.15;;;4.30;99.90;;;;;;4984565;28;20138;-78
2024/01/14 00:56:53;;;;;;;653.38;605.10;;;4.30;99.90;;;;;;4987597;28;20464;-78
2024/01/14 00:59:19;;;;;;;691.72;640.05;;;4.30;99.90;;;;;;5002461;28;20044;-78
2024/01/14 01:01:45;;;;;;;693.05;641.58;;;4.20;99.90;;;;;;4999690;28;20050;-78
2024/01/14 01:04:11;;;;;;;696.50;644.33;;;4.30;99.90;;;;;;4984837;28;20056;-78
2024/01/14 01:06:36;;;;;;;727.50;672.28;;;4.20;99.90;;;;;;5026474;28;20050;-78
2024/01/14 01:09:02;;;;;;;725.00;669.17;;;4.20;99.90;;;;;;5003507;28;20082;-78
2024/01/14 01:11:28;;;;;;;641.08;594.38;;;4.20;99.90;;;;;;5004773;28;20053;-78
2024/01/14 01:13:54;;;;;;;657.28;608.53;;;4.30;99.90;;;;;;4998833;28;20148;-78
2024/01/14 01:16:20;;;;;;;662.17;613.22;;;4.10;99.90;;;;;;5000132;28;20053;-78
2024/01/14 01:18:46;;;;;;;626.40;580.88;;;4.10;99.90;;;;;;4985803;28;20555;-78
2024/01/14 01:21:18;;;;;;;617.60;573.30;;;4.10;99.90;;;;;;4998214;28;20461;-78
2024/01/14 01:23:44;;;;;;;658.08;608.65;;;4.00;99.90;;;;;;4991298;28;20090;-78
2024/01/14 01:26:10;;;;;;;643.42;595.83;;;4.00;99.90;;;;;;4984301;28;20101;-78
2024/01/14 01:28:35;;;;;;;623.63;578.03;;;4.00;99.90;;;;;;4998349;28;20074;-78
2024/01/14 01:31:01;;;;;;;640.72;593.45;;;3.90;99.90;;;;;;5003427;28;20045;-78
2024/01/14 01:33:27;;;;;;;631.55;584.65;;;4.00;99.90;;;;;;5005053;28;20324;-78
2024/01/14 01:35:52;;;;;;;615.13;570.45;;;3.90;99.90;;;;;;5002042;28;20042;-78
2024/01/14 01:38:18;;;;;;;640.97;593.88;;;3.90;99.90;;;;;;5004466;28;20038;-78
2024/01/14 01:40:46;;;;;;;669.00;618.97;;;3.90;99.90;;;;;;5002936;28;20049;-78
2024/01/14 01:43:11;;;;;;;626.40;580.35;;;4.00;99.90;;;;;;5019860;28;20054;-78
2024/01/14 01:45:37;;;;;;;685.55;633.72;;;4.30;99.90;;;;;;5025157;28;20046;-78
2024/01/14 01:48:04;;;;;;;687.78;635.42;;;3.80;99.90;;;;;;4994136;28;20057;-78
2024/01/14 01:50:31;;;;;;;673.20;622.90;;;3.70;99.90;;;;;;4984147;28;20080;-78
2024/01/14 01:52:57;;;;;;;571.75;529.70;;;3.70;99.90;;;;;;4993394;28;20056;-78
2024/01/14 01:55:23;;;;;;;642.83;595.28;;;3.60;99.90;;;;;;5005111;28;20050;-78
2024/01/14 01:57:49;;;;;;;661.10;611.47;;;3.50;99.90;;;;;;5003989;28;20119;-78
2024/01/14 02:00:16;;;;;;;575.53;533.42;;;3.50;99.90;;;;;;4994909;28;20417;-78
2024/01/14 02:02:42;;;;;;;655.72;606.45;;;3.50;99.90;;;;;;5000862;28;20073;-78
2024/01/14 02:05:09;;;;;;;715.13;661.05;;;3.60;99.90;;;;;;5003790;28;20101;-78
2024/01/14 02:07:36;;;;;;;782.10;720.88;;;3.90;99.90;;;;;;5001617;28;20045;-78
2024/01/14 02:10:02;;;;;;;663.95;614.65;;;4.20;99.90;;;;;;5003960;28;20508;-78
2024/01/14 02:12:28;;;;;;;622.47;577.08;;;3.60;99.90;;;;;;5004047;28;20042;-78
2024/01/14 02:14:53;;;;;;;610.55;566.67;;;4.10;99.90;;;;;;5002530;28;20542;-78
2024/01/14 02:17:19;;;;;;;636.88;589.60;;;3.40;99.90;;;;;;5001570;28;20121;-78
2024/01/14 02:19:45;;;;;;;612.90;568.30;;;3.60;99.90;;;;;;5005104;28;20430;-78
2024/01/14 02:22:17;;;;;;;607.50;563.20;;;3.50;99.90;;;;;;5000915;28;20928;-78
2024/01/14 02:24:43;;;;;;;645.17;597.15;;;3.90;99.90;;;;;;4972983;28;20403;-78
2024/01/14 02:27:09;;;;;;;648.83;600.83;;;3.70;99.90;;;;;;4996025;28;20110;-78
2024/01/14 02:29:38;;;;;;;665.95;617.10;;;3.80;99.90;;;;;;4996181;28;20046;-78
2024/01/14 02:32:04;;;;;;;664.63;615.75;;;3.30;99.90;;;;;;4983861;28;20049;-78
2024/01/14 02:34:30;;;;;;;646.17;598.08;;;3.40;99.90;;;;;;4982893;28;20054;-78
2024/01/14 02:36:55;;;;;;;703.97;651.97;;;3.40;99.90;;;;;;4993891;28;20149;-78
2024/01/14 02:39:21;;;;;;;672.35;622.17;;;3.40;99.90;;;;;;4990390;28;20113;-78
2024/01/14 02:41:47;;;;;;;661.28;612.15;;;3.50;99.90;;;;;;5002383;28;20060;-78
2024/01/14 02:44:12;;;;;;;642.75;594.28;;;3.50;99.90;;;;;;5001926;28;20042;-77
2024/01/14 02:46:39;;;;;;;637.55;590.20;;;3.40;99.90;;;;;;5002874;28;20042;-78
2024/01/14 02:49:05;;;;;;;609.60;565.28;;;3.50;99.90;;;;;;4990876;28;20057;-78
2024/01/14 02:51:31;;;;;;;608.05;563.08;;;3.40;99.90;;;;;;5002338;28;20081;-77
2024/01/14 02:53:56;;;;;;;599.10;555.65;;;3.50;99.90;;;;;;5001272;28;20052;-78
2024/01/14 02:56:22;;;;;;;641.30;593.55;;;3.90;99.90;;;;;;5001510;28;20068;-78
2024/01/14 02:58:48;;;;;;;607.75;563.63;;;3.80;99.90;;;;;;5002958;28;20441;-78
2024/01/14 03:01:13;;;;;;;655.17;605.92;;;3.50;99.90;;;;;;5002747;28;20107;-78
2024/01/14 03:03:39;;;;;;;633.72;587.58;;;3.40;99.90;;;;;;5001473;28;20508;-78
2024/01/14 03:06:05;;;;;;;607.72;562.63;;;3.30;99.90;;;;;;5036045;28;20468;-78
2024/01/14 03:08:31;;;;;;;615.08;570.00;;;3.20;99.90;;;;;;5028933;28;20179;-78
2024/01/14 03:10:57;;;;;;;646.80;599.75;;;3.20;99.90;;;;;;5034842;28;20505;-78
2024/01/14 03:13:22;;;;;;;624.88;578.85;;;3.40;99.90;;;;;;5003238;28;20046;-78
2024/01/14 03:15:48;;;;;;;565.75;525.58;;;3.00;99.90;;;;;;5003835;28;20042;-78
2024/01/14 03:18:15;;;;;;;623.80;578.13;;;3.10;99.90;;;;;;4984759;28;20077;-78
2024/01/14 03:20:42;;;;;;;578.28;536.90;;;3.30;99.90;;;;;;5001981;28;20125;-78
2024/01/14 03:23:08;;;;;;;565.78;525.63;;;3.00;99.90;;;;;;5000143;28;20038;-78
2024/01/14 03:25:34;;;;;;;607.08;562.80;;;3.00;99.90;;;;;;5000904;28;20049;-78
2024/01/14 03:27:59;;;;;;;567.92;526.75;;;3.00;99.90;;;;;;5001082;28;20143;-78
2024/01/14 03:30:25;;;;;;;610.40;565.47;;;3.50;99.90;;;;;;5007347;28;20053;-78
2024/01/14 03:32:51;;;;;;;608.60;563.72;;;3.00;99.90;;;;;;5004482;28;20512;-78
2024/01/14 03:35:16;;;;;;;583.00;540.85;;;3.00;99.90;;;;;;5000671;28;20046;-78
2024/01/14 03:37:42;;;;;;;550.53;511.77;;;3.40;99.90;;;;;;5010403;28;20561;-78
2024/01/14 03:40:09;;;;;;;603.45;558.65;;;3.20;99.90;;;;;;5026870;28;20053;-78
2024/01/14 03:42:35;;;;;;;600.80;556.88;;;3.20;99.90;;;;;;4994204;28;20406;-78
2024/01/14 03:45:01;;;;;;;565.40;524.97;;;3.20;99.90;;;;;;4986178;28;20046;-78
2024/01/14 03:47:27;;;;;;;540.28;502.65;;;3.20;99.90;;;;;;4985979;28;20042;-78
2024/01/14 03:49:53;;;;;;;553.17;512.72;;;3.50;99.90;;;;;;4998075;28;20049;-78
2024/01/14 03:52:18;;;;;;;503.42;468.35;;;3.30;99.90;;;;;;5004324;28;20057;-78
2024/01/14 03:54:44;;;;;;;587.65;545.45;;;3.30;99.90;;;;;;4992992;28;20125;-78
2024/01/14 03:57:10;;;;;;;551.42;511.98;;;3.30;99.90;;;;;;5004807;28;20041;-78
2024/01/14 03:59:35;;;;;;;508.23;473.23;;;3.70;99.90;;;;;;4974225;28;20073;-78
2024/01/14 04:02:01;;;;;;;567.63;527.28;;;3.30;99.90;;;;;;4989624;28;20077;-78
2024/01/14 04:04:27;;;;;;;507.58;472.75;;;3.30;99.90;;;;;;5005043;28;20056;-78
2024/01/14 04:06:53;;;;;;;540.38;501.77;;;3.30;99.90;;;;;;5004742;28;20034;-78
2024/01/14 04:09:19;;;;;;;550.70;512.33;;;3.30;99.90;;;;;;5004163;28;20489;-78
2024/01/14 04:11:45;;;;;;;587.08;545.00;;;3.30;99.90;;;;;;5006588;28;20112;-78
2024/01/14 04:14:10;;;;;;;525.47;488.75;;;3.30;99.90;;;;;;5005839;28;20091;-78
2024/01/14 04:16:38;;;;;;;544.45;506.50;;;3.30;99.90;;;;;;5004849;28;20489;-78
2024/01/14 04:19:04;;;;;;;515.30;479.00;;;3.30;99.90;;;;;;5005686;28;20120;-78
2024/01/14 04:21:30;;;;;;;555.95;516.45;;;3.20;99.90;;;;;;4997939;28;20046;-78
2024/01/14 04:23:58;;;;;;;557.78;517.78;;;3.40;99.90;;;;;;4996632;28;20050;-78
2024/01/14 04:26:24;;;;;;;540.58;502.58;;;3.20;99.90;;;;;;5004932;28;20050;-78
2024/01/14 04:28:50;;;;;;;530.35;491.92;;;3.20;99.90;;;;;;5005539;28;20403;-78
2024/01/14 04:31:16;;;;;;;566.80;526.92;;;3.40;99.90;;;;;;5006296;28;20091;-78
2024/01/14 04:33:42;;;;;;;535.35;497.50;;;3.20;99.90;;;;;;5004062;28;20050;-78
2024/01/14 04:36:08;;;;;;;564.42;524.13;;;3.50;99.90;;;;;;4994437;28;20076;-78
2024/01/14 04:38:34;;;;;;;556.95;516.92;;;3.10;99.90;;;;;;4983957;28;20042;-78
2024/01/14 04:41:00;;;;;;;544.15;504.70;;;3.10;99.90;;;;;;5005310;28;20046;-78
2024/01/14 04:43:25;;;;;;;556.63;517.22;;;3.10;99.90;;;;;;5037173;28;20052;-78
2024/01/14 04:45:51;;;;;;;504.00;469.58;;;3.20;99.90;;;;;;5004891;28;20058;-78
2024/01/14 04:48:17;;;;;;;566.10;525.95;;;3.10;99.90;;;;;;4994527;28;20046;-78
2024/01/14 04:50:42;;;;;;;546.45;507.98;;;3.00;99.90;;;;;;4992054;28;20053;-78
2024/01/14 04:53:08;;;;;;;571.20;529.10;;;3.20;99.90;;;;;;4999004;28;20049;-78
2024/01/14 04:55:34;;;;;;;513.20;477.58;;;3.00;99.90;;;;;;4990785;28;20489;-78
2024/01/14 04:58:00;;;;;;;592.40;549.45;;;2.90;99.90;;;;;;5004713;28;20041;-78
2024/01/14 05:00:26;;;;;;;603.38;558.90;;;3.30;99.90;;;;;;5004364;28;20054;-78
2024/01/14 05:02:52;;;;;;;558.65;518.35;;;2.90;99.90;;;;;;5003478;28;20110;-78
2024/01/14 05:05:17;;;;;;;585.03;542.78;;;3.10;99.90;;;;;;5003910;28;20199;-78
2024/01/14 05:07:43;;;;;;;611.65;566.50;;;2.90;99.90;;;;;;5003082;28;20050;-78
2024/01/14 05:10:09;;;;;;;594.83;550.97;;;3.10;99.90;;;;;;5004520;28;20107;-77
2024/01/14 05:12:35;;;;;;;585.67;542.75;;;2.90;99.90;;;;;;5004012;28;20402;-78
2024/01/14 05:15:01;;;;;;;556.58;517.22;;;2.90;99.90;;;;;;4993518;28;20073;-78
2024/01/14 05:17:27;;;;;;;552.97;514.10;;;3.50;99.90;;;;;;4989745;28;20127;-78
2024/01/14 05:19:53;;;;;;;601.05;556.97;;;3.00;99.90;;;;;;5005978;28;20042;-78
2024/01/14 05:22:19;;;;;;;545.65;507.23;;;2.80;99.90;;;;;;5003203;28;20476;-78
2024/01/14 05:24:45;;;;;;;527.55;491.00;;;3.20;99.90;;;;;;4986461;28;20161;-77
2024/01/14 05:27:12;;;;;;;528.72;492.23;;;3.00;99.90;;;;;;4986851;28;20042;-78
2024/01/14 05:29:41;;;;;;;526.25;489.85;;;2.60;99.90;;;;;;4992929;28;20065;-78
2024/01/14 05:32:08;;;;;;;515.10;479.30;;;3.50;99.90;;;;;;5004218;28;20050;-78
2024/01/14 05:34:34;;;;;;;526.30;489.83;;;2.80;99.90;;;;;;5004211;28;20743;-78
2024/01/14 05:37:01;;;;;;;595.53;552.38;;;2.60;99.90;;;;;;5001960;28;20046;-78
2024/01/14 05:39:27;;;;;;;642.67;595.38;;;2.40;99.90;;;;;;5003727;28;20061;-78
2024/01/14 05:41:53;;;;;;;607.08;563.13;;;2.50;99.90;;;;;;4989948;28;20054;-78
2024/01/14 05:44:18;;;;;;;586.70;544.63;;;2.30;99.90;;;;;;4983701;28;20042;-78
2024/01/14 05:46:44;;;;;;;555.45;514.67;;;2.80;99.90;;;;;;4986305;28;20082;-78
2024/01/14 05:49:10;;;;;;;600.25;555.67;;;2.20;99.90;;;;;;4983957;28;20434;-78
2024/01/14 05:51:36;;;;;;;569.80;527.95;;;2.20;99.90;;;;;;4984820;28;20051;-78
2024/01/14 05:54:03;;;;;;;652.90;604.53;;;2.30;99.90;;;;;;4983569;28;20046;-78
2024/01/14 05:56:29;;;;;;;633.95;587.05;;;3.20;99.90;;;;;;4983853;28;20599;-78
2024/01/14 05:58:55;;;;;;;596.78;553.67;;;2.40;99.90;;;;;;5004497;28;20046;-78
2024/01/14 06:01:22;;;;;;;632.40;585.88;;;3.10;99.90;;;;;;5004711;28;20477;-78
2024/01/14 06:03:47;;;;;;;630.22;583.92;;;2.50;99.90;;;;;;5003089;28;20054;-77
2024/01/14 06:06:13;;;;;;;685.13;634.22;;;2.10;99.90;;;;;;5035843;28;20041;-78
2024/01/14 06:08:41;;;;;;;673.22;622.88;;;2.60;99.90;;;;;;5003984;28;20081;-78
2024/01/14 06:11:07;;;;;;;680.90;630.55;;;2.30;99.90;;;;;;5003635;28;20049;-78
2024/01/14 06:13:33;;;;;;;746.45;689.47;;;2.70;99.90;;;;;;5002241;28;20050;-78
2024/01/14 06:15:59;;;;;;;661.28;611.92;;;2.30;99.90;;;;;;4979704;28;20053;-78
2024/01/14 06:18:25;;;;;;;714.03;660.63;;;2.50;99.90;;;;;;5003049;28;20046;-78
2024/01/14 06:20:51;;;;;;;656.28;607.15;;;3.20;99.90;;;;;;4999354;28;20057;-78
2024/01/14 06:23:16;;;;;;;713.45;659.67;;;2.40;99.90;;;;;;4993824;28;20053;-78
2024/01/14 06:25:42;;;;;;;716.92;662.63;;;2.40;99.90;;;;;;4983617;28;20058;-78
2024/01/14 06:28:08;;;;;;;703.10;649.22;;;2.40;99.90;;;;;;4985074;28;20050;-78
2024/01/14 06:30:34;;;;;;;701.20;648.80;;;2.50;99.90;;;;;;4983966;28;20103;-78
2024/01/14 06:33:00;;;;;;;744.33;687.72;;;2.50;99.90;;;;;;4985676;28;20049;-78
2024/01/14 06:35:25;;;;;;;784.08;724.40;;;2.60;99.90;;;;;;4985461;28;20048;-78
2024/01/14 06:37:51;;;;;;;731.47;676.28;;;3.10;99.90;;;;;;4983576;28;20551;-78
2024/01/14 06:40:17;;;;;;;665.90;617.10;;;3.10;99.90;;;;;;4985181;28;20050;-78
2024/01/14 06:42:43;;;;;;;703.45;650.75;;;3.20;99.90;;;;;;4983094;28;20074;-78
2024/01/14 06:45:12;;;;;;;631.70;585.45;;;3.20;99.90;;;;;;4980392;28;20443;-78
2024/01/14 06:47:38;;;;;;;622.45;576.25;;;2.70;99.90;;;;;;5002734;28;20483;-78
2024/01/14 06:50:05;;;;;;;540.50;501.95;;;2.60;99.90;;;;;;5003035;28;20050;-78
2024/01/14 06:52:30;;;;;;;604.55;560.75;;;2.50;99.90;;;;;;5001833;28;20579;-78
2024/01/14 06:54:56;;;;;;;618.30;572.60;;;2.40;99.90;;;;;;5001809;28;20525;-79
2024/01/14 06:57:22;;;;;;;520.03;483.85;;;2.30;99.90;;;;;;5000012;28;20179;-78
2024/01/14 06:59:48;;;;;;;540.13;501.58;;;2.20;99.90;;;;;;5034441;28;20077;-78
2024/01/14 07:02:14;;;;;;;544.15;505.80;;;2.30;99.90;;;;;;4996400;28;20066;-79
2024/01/14 07:04:40;;;;;;;631.05;583.95;;;2.10;99.90;;;;;;5002161;28;20050;-78
2024/01/14 07:07:07;;;;;;;623.20;577.45;;;2.00;99.90;;;;;;5007707;28;20042;-78
2024/01/14 07:09:34;;;;;;;677.78;626.80;;;2.30;99.90;;;;;;5004979;28;20053;-78
2024/01/14 07:12:01;;;;;;;667.75;618.40;;;2.60;99.90;;;;;;5004590;28;20533;-78
2024/01/14 07:14:28;;;;;;;734.60;678.78;;;2.10;99.90;;;;;;4996987;28;20050;-78
2024/01/14 07:16:53;;;;;;;715.20;661.58;;;2.30;99.90;;;;;;5003373;28;20079;-78
2024/01/14 07:19:19;;;;;;;660.90;611.17;;;2.70;99.90;;;;;;5004248;28;20599;-78
2024/01/14 07:21:44;;;;;;;678.20;627.28;;;2.20;99.90;;;;;;5001441;28;20049;-78
2024/01/14 07:24:10;;;;;;;582.17;539.85;;;2.10;99.90;;;;;;5033926;28;20498;-78
2024/01/14 07:26:36;;;;;;;629.55;582.78;;;2.20;99.90;;;;;;4981710;28;20141;-78
2024/01/14 07:29:02;;;;;;;680.88;629.30;;;2.10;99.90;;;;;;4995592;28;20113;-78
2024/01/14 07:31:30;;;;;;;645.97;598.08;;;2.40;99.90;;;;;;5000322;28;20046;-78
2024/01/14 07:33:56;;;;;;;706.15;652.88;;;2.10;99.90;;;;;;4998974;28;20529;-78
2024/01/14 07:36:22;;;;;;;751.28;694.28;;;2.10;99.90;;;;;;4993517;28;20470;-78
2024/01/14 07:38:49;;;;;;;750.15;692.40;;;2.20;99.90;;;;;;5002925;28;20045;-78
2024/01/14 07:41:15;;;;;;;718.92;664.53;;;2.20;99.90;;;;;;4991438;28;20073;-78
2024/01/14 07:43:41;;;;;;;773.45;713.72;;;2.30;99.90;;;;;;4993718;28;20063;-78
2024/01/14 07:46:08;;;;;;;762.50;704.47;;;2.40;99.90;;;;;;5004278;28;20053;-78
2024/01/14 07:48:34;;;;;;;723.13;668.17;;;2.70;99.90;;;;;;4990819;28;20058;-78
2024/01/14 07:51:01;;;;;;;706.63;653.22;;;2.90;99.90;;;;;;5005546;28;20573;-78
2024/01/14 07:53:27;;;;;;;737.63;681.90;;;2.50;99.90;;;;;;4991571;28;20052;-78
2024/01/14 07:55:53;;;;;;;723.00;667.88;;;2.70;99.90;;;;;;4981936;28;20499;-78
2024/01/14 07:58:18;;;;;;;724.05;668.30;;;2.90;99.90;;;;;;4978233;28;20522;-79
2024/01/14 08:00:45;;;;;;;723.85;668.17;;;2.40;99.90;;;;;;5005849;28;20050;-79
2024/01/14 08:03:11;;;;;;;675.47;625.50;;;2.30;99.90;;;;;;4995500;28;20060;-79
2024/01/14 08:05:38;;;;;;;677.55;626.22;;;2.20;99.90;;;;;;5001746;28;20046;-78
2024/01/14 08:08:04;;;;;;;656.30;607.70;;;2.20;99.90;;;;;;4986391;28;20053;-79
2024/01/14 08:10:32;;;;;;;631.55;584.42;;;2.20;99.90;;;;;;4983105;28;20085;-79
2024/01/14 08:12:57;;;;;;;611.65;566.72;;;2.20;99.90;;;;;;5004167;28;20046;-79
2024/01/14 08:15:23;;;;;;;673.25;623.40;;;2.20;99.90;;;;;;5003216;28;20045;-79
2024/01/14 08:17:49;;;;;;;678.25;628.20;;;2.10;99.90;;;;;;5002584;28;20359;-79
2024/01/14 08:20:14;;;;;;;651.17;602.85;;;2.90;99.90;;;;;;5003085;28;20050;-79
2024/01/14 08:22:40;;;;;;;606.78;562.70;;;2.10;99.90;;;;;;5000350;28;20051;-77
2024/01/14 08:25:07;;;;;;;665.35;616.00;;;2.00;99.90;;;;;;5003025;28;20057;-78
2024/01/14 08:27:34;;;;;;;725.67;670.72;;;2.00;99.90;;;;;;4999917;28;20105;-79
2024/01/14 08:30:00;;;;;;;752.55;694.63;;;2.00;99.90;;;;;;5004247;28;20094;-78
2024/01/14 08:32:27;;;;;;;723.50;668.20;;;2.10;99.90;;;;;;4987175;28;20090;-78
2024/01/14 08:34:52;;;;;;;767.05;708.30;;;2.60;99.90;;;;;;4978831;28;20474;-77
2024/01/14 08:37:18;;;;;;;759.15;701.08;;;2.10;99.90;;;;;;4992939;28;20125;-77
2024/01/14 08:39:44;;;;;;;747.58;690.90;;;2.20;99.90;;;;;;4996240;28;20030;-77
2024/01/14 08:42:09;;;;;;;734.83;678.88;;;2.90;99.90;;;;;;4979245;28;20490;-78
2024/01/14 08:44:36;;;;;;;705.13;652.17;;;2.10;99.90;;;;;;4990600;28;20102;-78
2024/01/14 08:47:01;;;;;;;718.45;664.20;;;2.10;99.90;;;;;;4991886;28;20142;-77
2024/01/14 08:49:29;;;;;;;653.85;605.13;;;2.20;99.90;;;;;;4974444;28;20592;-78
2024/01/14 08:51:56;;;;;;;693.53;642.50;;;2.10;99.90;;;;;;4993060;28;20491;-77
2024/01/14 08:54:22;;;;;;;680.67;629.78;;;2.10;99.90;;;;;;4986806;28;20051;-77
2024/01/14 08:56:48;;;;;;;651.95;603.47;;;2.60;99.90;;;;;;5001367;28;20046;-77
2024/01/14 08:59:14;;;;;;;667.83;618.28;;;2.10;99.90;;;;;;4978241;28;20035;-77
2024/01/14 09:01:40;;;;;;;719.85;665.00;;;2.40;99.90;;;;;;4973593;28;20496;-77
2024/01/14 09:04:06;;;;;;;731.00;675.45;;;2.10;99.90;;;;;;5004524;28;20149;-77
2024/01/14 09:06:31;;;;;;;695.70;643.75;;;2.20;99.90;;;;;;5002156;28;20054;-77
2024/01/14 09:08:57;;;;;;;730.22;672.65;;;2.50;99.90;;;;;;5002801;28;20059;-77
2024/01/14 09:11:23;;;;;;;661.17;612.08;;;2.20;99.90;;;;;;5032467;28;20049;-77
2024/01/14 09:13:48;;;;;;;700.05;649.08;;;2.20;99.90;;;;;;4965887;28;20075;-77
2024/01/14 09:16:14;;;;;;;744.47;688.22;;;2.70;99.90;;;;;;4991165;28;20056;-77
2024/01/14 09:18:40;;;;;;;760.42;703.08;;;2.30;99.90;;;;;;5035419;28;20439;-77
2024/01/14 09:21:06;;;;;;;708.00;655.47;;;2.20;99.90;;;;;;5004801;28;20131;-77
2024/01/14 09:23:32;;;;;;;743.65;687.67;;;2.40;99.90;;;;;;4988840;28;20053;-77
2024/01/14 09:25:58;;;;;;;768.95;710.42;;;2.40;99.90;;;;;;5003633;28;20081;-77
2024/01/14 09:28:24;;;;;;;757.10;699.85;;;2.50;99.90;;;;;;4994750;28;20065;-77
2024/01/14 09:30:50;;;;;;;754.80;697.10;;;2.90;99.90;;;;;;5004150;28;20046;-77
2024/01/14 09:33:18;;;;;;;745.50;687.10;;;2.60;99.90;;;;;;5005467;28;20049;-77
2024/01/14 09:35:44;;;;;;;761.42;703.72;;;3.20;99.90;;;;;;4990436;28;20047;-77
2024/01/14 09:38:10;;;;;;;750.92;693.78;;;2.80;99.90;;;;;;4973669;28;20068;-77
2024/01/14 09:40:36;;;;;;;786.85;725.28;;;2.80;99.90;;;;;;4974387;28;20138;-77
2024/01/14 09:43:04;;;;;;;719.67;664.85;;;2.80;99.90;;;;;;4968442;28;20448;-77
2024/01/14 09:45:34;;;;;;;686.30;635.22;;;3.00;99.90;;;;;;5008838;28;20051;-77
2024/01/14 09:48:01;;;;;;;680.65;629.88;;;3.00;99.90;;;;;;4974962;28;20107;-77
2024/01/14 09:50:27;;;;;;;646.53;598.15;;;3.10;99.90;;;;;;5000793;28;20056;-76
2024/01/14 09:52:56;;;;;;;638.72;591.47;;;3.10;99.90;;;;;;4994742;28;20050;-77
2024/01/14 09:55:22;;;;;;;672.08;621.70;;;3.10;99.90;;;;;;4983998;28;20042;-77
2024/01/14 09:57:49;;;;;;;607.72;563.15;;;3.20;99.90;;;;;;4983198;28;20068;-77
2024/01/14 10:00:15;;;;;;;650.33;600.88;;;3.30;99.90;;;;;;5005809;28;20044;-76
2024/01/14 10:02:42;;;;;;;623.25;577.10;;;3.40;99.90;;;;;;5042313;28;20065;-78
2024/01/14 10:05:08;;;;;;;628.05;581.72;;;3.30;99.90;;;;;;4989003;28;20397;-77
2024/01/14 10:07:35;;;;;;;622.78;576.80;;;3.40;99.90;;;;;;4986099;28;20437;-76
2024/01/14 10:10:01;;;;;;;572.78;531.33;;;3.50;99.90;;;;;;4987536;28;20048;-77
2024/01/14 10:12:27;;;;;;;557.45;518.50;;;3.50;99.90;;;;;;4984335;28;20269;-77
2024/01/14 10:14:58;;;;;;;568.35;528.03;;;3.60;99.90;;;;;;5020952;28;20058;-77
2024/01/14 10:17:24;;;;;;;600.10;555.67;;;3.60;99.90;;;;;;4988992;28;20045;-77
2024/01/14 10:19:54;;;;;;;623.80;576.65;;;3.70;99.90;;;;;;4980660;28;20042;-78
2024/01/14 10:22:21;;;;;;;614.60;569.58;;;3.80;99.90;;;;;;5001662;28;20146;-77
2024/01/14 10:24:51;;;;;;;582.92;540.00;;;3.90;99.90;;;;;;5002323;28;20057;-77
2024/01/14 10:27:18;;;;;;;542.38;504.23;;;4.00;99.90;;;;;;4993529;28;20489;-77
2024/01/14 10:29:45;;;;;;;607.30;562.35;;;4.00;99.90;;;;;;4983559;28;20088;-77
2024/01/14 10:32:10;;;;;;;602.70;558.50;;;4.10;99.90;;;;;;4984040;28;20397;-77
2024/01/14 10:34:36;;;;;;;561.25;520.45;;;4.50;99.90;;;;;;4983458;28;20048;-77
2024/01/14 10:37:03;;;;;;;563.28;522.10;;;4.40;99.90;;;;;;5003125;28;20131;-77
2024/01/14 10:39:31;;;;;;;541.67;503.20;;;4.60;99.90;;;;;;5001111;28;20132;-78
2024/01/14 10:41:56;;;;;;;510.60;474.90;;;4.70;99.90;;;;;;5002260;28;20037;-77
2024/01/14 10:44:22;;;;;;;548.25;509.20;;;4.70;99.90;;;;;;4994061;28;20042;-77
2024/01/14 10:46:52;;;;;;;432.30;403.88;;;4.80;99.90;;;;;;5000112;28;20076;-77
2024/01/14 10:49:21;;;;;;;425.38;395.95;;;4.80;99.90;;;;;;5010900;28;20494;-77
2024/01/14 10:51:54;;;;;;;425.25;396.58;;;4.80;99.90;;;;;;4989713;28;20084;-77
2024/01/14 10:54:23;;;;;;;442.55;412.40;;;4.70;99.90;;;;;;5001793;28;20131;-77
2024/01/14 10:56:59;;;;;;;401.05;374.90;;;4.70;99.90;;;;;;5003964;28;20404;-77
2024/01/14 10:59:27;;;;;;;453.02;421.40;;;4.70;99.90;;;;;;4989392;28;20039;-77
2024/01/14 11:01:57;;;;;;;368.77;344.38;;;4.80;99.90;;;;;;5010812;28;20057;-77
2024/01/14 11:04:25;;;;;;;354.45;332.02;;;4.80;99.90;;;;;;5002383;28;20129;-77
2024/01/14 11:06:55;;;;;;;360.50;336.23;;;4.90;99.90;;;;;;4983375;28;20502;-77
2024/01/14 11:09:22;;;;;;;314.48;294.88;;;4.90;99.90;;;;;;4998798;28;20522;-77
2024/01/14 11:11:55;;;;;;;283.65;266.38;;;4.90;99.90;;;;;;4989317;28;20082;-77
2024/01/14 11:14:30;;;;;;;334.88;313.70;;;4.90;99.90;;;;;;5000808;28;20033;-78
2024/01/14 11:17:06;;;;;;;323.35;302.27;;;4.90;99.90;;;;;;4986508;28;20054;-76
2024/01/14 11:19:35;;;;;;;341.17;319.13;;;4.80;99.90;;;;;;5001301;28;20447;-76
2024/01/14 11:22:12;;;;;;;349.50;326.45;;;4.80;99.90;;;;;;5002135;28;20030;-76
2024/01/14 11:24:39;;;;;;;335.05;313.88;;;4.90;99.90;;;;;;5000563;28;20058;-76
2024/01/14 11:27:05;;;;;;;347.02;324.10;;;4.90;99.90;;;;;;5035189;28;20075;-76
2024/01/14 11:29:36;;;;;;;348.42;326.73;;;4.90;99.90;;;;;;4983424;28;20055;-76
2024/01/14 11:32:03;;;;;;;352.92;329.58;;;4.90;99.90;;;;;;4973015;28;20133;-76
2024/01/14 11:34:47;;;;;;;328.98;308.15;;;4.80;99.90;;;;;;5006842;28;20099;-76
2024/01/14 11:37:29;;;;;;;332.73;312.10;;;4.70;99.90;;;;;;5005942;28;20034;-76
2024/01/14 11:40:08;;;;;;;416.70;389.55;;;4.70;99.90;;;;;;4984087;28;20724;-76
2024/01/14 11:42:34;;;;;;;360.48;337.42;;;4.70;99.90;;;;;;4994583;28;20053;-76
2024/01/14 11:45:01;;;;;;;378.60;354.02;;;4.80;99.90;;;;;;4997296;28;20446;-76
2024/01/14 11:47:36;;;;;;;413.48;385.42;;;4.80;99.90;;;;;;4994281;28;20046;-76
2024/01/14 11:50:04;;;;;;;509.02;473.35;;;4.80;99.90;;;;;;4998486;28;20091;-77
2024/01/14 11:52:29;;;;;;;425.38;396.80;;;4.80;99.90;;;;;;4978824;28;20505;-76
2024/01/14 11:54:55;;;;;;;400.60;374.48;;;4.90;99.90;;;;;;5007009;28;20037;-76
2024/01/14 11:57:24;;;;;;;375.55;351.52;;;4.90;99.90;;;;;;4999282;28;20057;-80
2024/01/14 11:59:51;;;;;;;383.23;357.58;;;4.80;99.90;;;;;;4997479;28;20613;-81
2024/01/14 12:02:17;;;;;;;391.35;365.63;;;4.70;99.90;;;;;;4996140;28;20045;-80
2024/01/14 12:04:43;;;;;;;430.05;400.98;;;4.70;99.90;;;;;;4990971;28;20092;-80
2024/01/14 12:07:09;;;;;;;405.38;379.08;;;4.60;99.90;;;;;;4984798;28;20598;-79
2024/01/14 12:09:35;;;;;;;492.27;458.38;;;4.60;99.90;;;;;;4995750;28;20054;-80
2024/01/14 12:12:07;;;;;;;530.85;492.60;;;4.70;99.90;;;;;;5002090;28;20496;-80
2024/01/14 12:14:37;;;;;;;569.28;528.15;;;4.90;99.90;;;;;;4997431;28;20038;-80